createdAt,value
2023-02-08T00:01:11.692Z,100.00
2023-02-08T00:03:40.806Z,100.00
2023-02-08T00:06:10.283Z,100.00
2023-02-08T00:08:38.867Z,100.00
2023-02-08T00:11:07.408Z,100.00
2023-02-08T00:13:35.624Z,100.00
2023-02-08T00:16:03.574Z,100.00
2023-02-08T00:18:31.553Z,100.00
2023-02-08T00:21:00.748Z,100.00
2023-02-08T00:23:28.619Z,100.00
2023-02-08T00:25:56.353Z,100.00
2023-02-08T00:28:24.449Z,100.00
2023-02-08T00:30:52.811Z,100.00
2023-02-08T00:33:20.770Z,100.00
2023-02-08T00:35:48.590Z,100.00
2023-02-08T00:38:17.712Z,100.00
2023-02-08T00:40:45.454Z,100.00
2023-02-08T00:43:13.247Z,100.00
2023-02-08T00:45:41.252Z,100.00
2023-02-08T00:48:09.103Z,100.00
2023-02-08T00:50:37.107Z,100.00
2023-02-08T00:53:04.932Z,100.00
2023-02-08T00:55:33.988Z,100.00
2023-02-08T00:58:01.787Z,100.00
2023-02-08T01:00:29.587Z,100.00
2023-02-08T01:02:57.480Z,100.00
2023-02-08T01:05:25.298Z,100.00
2023-02-08T01:07:53.036Z,100.00
2023-02-08T01:10:20.800Z,100.00
2023-02-08T01:12:49.926Z,100.00
2023-02-08T01:15:17.820Z,100.00
2023-02-08T01:17:45.565Z,100.00
2023-02-08T01:20:13.357Z,100.00
2023-02-08T01:22:41.080Z,100.00
2023-02-08T01:25:09.106Z,100.00
2023-02-08T01:27:36.874Z,100.00
2023-02-08T01:30:07.549Z,100.00
2023-02-08T01:32:35.305Z,100.00
2023-02-08T01:35:03.154Z,100.00
2023-02-08T01:37:30.880Z,100.00
2023-02-08T01:39:58.596Z,100.00
2023-02-08T01:42:26.465Z,100.00
2023-02-08T01:45:25.165Z,100.00
2023-02-08T01:47:57.763Z,100.00
2023-02-08T01:50:32.030Z,100.00
2023-02-08T01:53:00.555Z,100.00
2023-02-08T01:55:32.646Z,100.00
2023-02-08T01:58:04.757Z,100.00
2023-02-08T02:00:33.992Z,100.00
2023-02-08T02:03:03.817Z,100.00
2023-02-08T02:05:35.503Z,100.00
2023-02-08T02:08:03.723Z,100.00
2023-02-08T02:10:33.324Z,100.00
2023-02-08T02:13:04.907Z,100.00
2023-02-08T02:15:34.081Z,100.00
2023-02-08T02:18:02.723Z,100.00
2023-02-08T02:20:59.375Z,100.00
2023-02-08T02:23:56.225Z,100.00
2023-02-08T02:27:06.507Z,100.00
2023-02-08T02:30:07.196Z,100.00
2023-02-08T02:32:56.915Z,100.00
2023-02-08T02:35:31.681Z,100.00
2023-02-08T02:38:11.514Z,100.00
2023-02-08T02:40:49.996Z,100.00
2023-02-08T02:43:41.312Z,100.00
2023-02-08T02:46:22.871Z,100.00
2023-02-08T02:49:00.742Z,100.00
2023-02-08T02:51:34.916Z,100.00
2023-02-08T02:54:08.334Z,100.00
2023-02-08T02:56:40.227Z,100.00
2023-02-08T02:59:11.861Z,100.00
2023-02-08T03:01:40.636Z,99.16
2023-02-08T03:04:17.065Z,98.95
2023-02-08T03:07:01.672Z,98.98
2023-02-08T03:09:47.767Z,98.71
2023-02-08T03:12:34.528Z,98.65
2023-02-08T03:15:12.378Z,98.61
2023-02-08T03:17:55.431Z,98.74
2023-02-08T03:20:28.777Z,98.27
2023-02-08T03:23:02.515Z,97.54
2023-02-08T03:25:36.238Z,96.89
2023-02-08T03:28:13.650Z,95.98
2023-02-08T03:30:51.958Z,95.88
2023-02-08T03:33:26.006Z,95.42
2023-02-08T03:36:01.683Z,95.24
2023-02-08T03:38:33.933Z,95.26
2023-02-08T03:41:05.448Z,95.50
2023-02-08T03:43:37.676Z,95.65
2023-02-08T03:46:14.591Z,95.91
2023-02-08T03:48:47.024Z,96.07
2023-02-08T03:51:17.496Z,96.98
2023-02-08T03:53:47.325Z,96.95
2023-02-08T03:56:18.839Z,96.96
2023-02-08T03:58:50.788Z,97.60
2023-02-08T04:01:24.423Z,97.50
2023-02-08T04:03:54.941Z,98.23
2023-02-08T04:06:24.585Z,98.39
2023-02-08T04:08:53.526Z,98.64
2023-02-08T04:11:21.252Z,99.16
2023-02-08T04:13:48.987Z,98.63
2023-02-08T04:16:17.772Z,98.54
2023-02-08T04:18:45.523Z,98.61
2023-02-08T04:21:13.367Z,98.89
2023-02-08T04:23:42.486Z,98.63
2023-02-08T04:26:10.213Z,98.50
2023-02-08T04:28:37.960Z,98.25
2023-02-08T04:31:06.101Z,98.08
2023-02-08T04:33:33.977Z,96.45
2023-02-08T04:36:01.741Z,95.61
2023-02-08T04:38:29.571Z,94.87
2023-02-08T04:40:58.674Z,94.01
2023-02-08T04:43:26.412Z,93.54
2023-02-08T04:45:54.353Z,93.33
2023-02-08T04:48:22.250Z,93.24
2023-02-08T04:50:50.064Z,92.86
2023-02-08T04:53:17.844Z,93.25
2023-02-08T04:55:45.583Z,93.62
2023-02-08T04:58:14.731Z,93.42
2023-02-08T05:00:42.842Z,93.43
2023-02-08T05:03:11.055Z,93.70
2023-02-08T05:05:38.824Z,93.99
2023-02-08T05:08:06.632Z,93.29
2023-02-08T05:10:34.726Z,92.66
2023-02-08T05:13:02.480Z,92.55
2023-02-08T05:15:31.650Z,91.93
2023-02-08T05:17:59.375Z,92.25
2023-02-08T05:20:27.130Z,91.94
2023-02-08T05:22:54.947Z,91.45
2023-02-08T05:25:22.971Z,90.17
2023-02-08T05:27:50.779Z,89.21
2023-02-08T05:30:18.730Z,88.44
2023-02-08T05:32:47.886Z,87.99
2023-02-08T05:35:15.872Z,87.78
2023-02-08T05:37:43.692Z,88.04
2023-02-08T05:40:13.104Z,88.12
2023-02-08T05:42:42.410Z,87.88
2023-02-08T05:45:10.701Z,88.54
2023-02-08T05:47:38.512Z,89.00
2023-02-08T05:50:08.050Z,88.88
2023-02-08T05:52:35.851Z,89.01
2023-02-08T05:55:03.900Z,89.31
2023-02-08T05:57:33.648Z,89.63
2023-02-08T06:00:04.492Z,90.09
2023-02-08T06:02:32.931Z,90.18
2023-02-08T06:05:00.732Z,90.26
2023-02-08T06:07:29.887Z,90.62
2023-02-08T06:09:57.653Z,90.97
2023-02-08T06:12:25.387Z,91.56
2023-02-08T06:14:53.186Z,92.11
2023-02-08T06:17:20.941Z,92.30
2023-02-08T06:19:48.701Z,92.94
2023-02-08T06:22:16.733Z,93.41
2023-02-08T06:24:45.867Z,93.55
2023-02-08T06:27:13.617Z,94.07
2023-02-08T06:29:41.484Z,94.36
2023-02-08T06:32:09.341Z,94.49
2023-02-08T06:34:37.094Z,94.68
2023-02-08T06:37:05.634Z,94.14
2023-02-08T06:39:33.541Z,94.34
2023-02-08T06:42:02.693Z,93.94
2023-02-08T06:44:30.474Z,93.21
2023-02-08T06:46:58.223Z,93.40
2023-02-08T06:49:26.152Z,93.29
2023-02-08T06:51:53.959Z,92.76
2023-02-08T06:54:21.693Z,92.82
2023-02-08T06:56:49.694Z,92.91
2023-02-08T06:59:18.870Z,92.58
2023-02-08T07:01:46.601Z,92.63
2023-02-08T07:04:14.338Z,92.45
2023-02-08T07:06:42.089Z,91.89
2023-02-08T07:09:09.836Z,90.89
2023-02-08T07:11:37.563Z,90.26
2023-02-08T07:14:05.409Z,90.11
2023-02-08T07:16:34.576Z,89.60
2023-02-08T07:19:02.341Z,89.02
2023-02-08T07:21:30.144Z,88.46
2023-02-08T07:23:57.897Z,88.24
2023-02-08T07:26:25.683Z,88.24
2023-02-08T07:28:53.481Z,88.62
2023-02-08T07:31:21.267Z,88.61
2023-02-08T07:33:50.461Z,88.49
2023-02-08T07:36:18.340Z,88.37
2023-02-08T07:38:46.152Z,88.47
2023-02-08T07:41:15.332Z,88.51
2023-02-08T07:43:43.990Z,88.76
2023-02-08T07:46:13.469Z,88.79
2023-02-08T07:48:41.293Z,88.52
2023-02-08T07:51:11.889Z,89.04
2023-02-08T07:53:40.252Z,89.74
2023-02-08T07:56:08.163Z,89.98
2023-02-08T07:58:35.945Z,90.15
2023-02-08T08:01:19.503Z,90.16
2023-02-08T08:03:49.253Z,89.54
2023-02-08T08:06:18.755Z,89.35
2023-02-08T08:08:47.682Z,89.30
2023-02-08T08:11:15.658Z,88.99
2023-02-08T08:13:43.792Z,88.72
2023-02-08T08:16:11.718Z,88.64
2023-02-08T08:18:39.662Z,87.91
2023-02-08T08:21:08.385Z,87.92
2023-02-08T08:23:37.785Z,87.29
2023-02-08T08:26:09.855Z,86.30
2023-02-08T08:28:38.491Z,86.07
2023-02-08T08:31:11.369Z,85.26
2023-02-08T08:33:39.261Z,84.30
2023-02-08T08:36:07.760Z,83.03
2023-02-08T08:38:38.714Z,82.43
2023-02-08T08:41:09.033Z,82.39
2023-02-08T08:43:36.878Z,82.85
2023-02-08T08:46:06.702Z,82.48
2023-02-08T08:48:35.002Z,82.85
2023-02-08T08:51:03.294Z,82.78
2023-02-08T08:53:31.053Z,82.11
2023-02-08T08:56:00.285Z,81.82
2023-02-08T08:58:28.069Z,81.89
2023-02-08T09:00:57.722Z,82.02
2023-02-08T09:03:25.747Z,81.53
2023-02-08T09:05:53.777Z,81.64
2023-02-08T09:08:21.528Z,81.27
2023-02-08T09:10:49.268Z,81.16
2023-02-08T09:13:21.252Z,81.34
2023-02-08T09:15:49.684Z,80.41
2023-02-08T09:18:17.950Z,80.12
2023-02-08T09:20:45.985Z,79.55
2023-02-08T09:23:15.140Z,78.64
2023-02-08T09:25:43.201Z,78.78
2023-02-08T09:28:11.037Z,78.63
2023-02-08T09:30:41.790Z,78.64
2023-02-08T09:33:10.001Z,78.66
2023-02-08T09:35:37.750Z,78.41
2023-02-08T09:38:05.869Z,77.22
2023-02-08T09:40:44.142Z,77.27
2023-02-08T09:43:19.406Z,76.56
2023-02-08T09:46:00.323Z,75.76
2023-02-08T09:48:32.568Z,75.89
2023-02-08T09:51:05.571Z,75.79
2023-02-08T09:53:37.679Z,75.37
2023-02-08T09:56:07.578Z,73.99
2023-02-08T09:58:38.872Z,73.04
2023-02-08T10:01:13.996Z,73.87
2023-02-08T10:03:45.026Z,74.89
2023-02-08T10:06:15.423Z,75.49
2023-02-08T10:08:44.421Z,74.43
2023-02-08T10:11:30.481Z,73.79
2023-02-08T10:14:13.272Z,74.03
2023-02-08T10:16:56.681Z,74.02
2023-02-08T10:19:39.595Z,73.22
2023-02-08T10:22:21.146Z,73.26
2023-02-08T10:25:02.937Z,72.45
2023-02-08T10:27:41.137Z,72.76
2023-02-08T10:30:20.456Z,71.02
2023-02-08T10:32:59.633Z,71.22
2023-02-08T10:35:32.133Z,70.80
2023-02-08T10:38:00.143Z,70.31
2023-02-08T10:40:33.655Z,69.30
2023-02-08T10:43:18.377Z,69.21
2023-02-08T10:45:53.879Z,67.87
2023-02-08T10:48:36.061Z,68.40
2023-02-08T10:51:03.915Z,67.94
2023-02-08T10:53:32.387Z,66.38
2023-02-08T10:56:00.151Z,65.84
2023-02-08T10:58:27.922Z,65.31
2023-02-08T11:00:58.452Z,64.88
2023-02-08T11:03:29.445Z,64.90
2023-02-08T11:05:57.653Z,64.27
2023-02-08T11:08:27.725Z,64.06
2023-02-08T11:11:01.197Z,64.32
2023-02-08T11:13:36.665Z,64.35
2023-02-08T11:16:06.964Z,63.45
2023-02-08T11:18:38.948Z,63.54
2023-02-08T11:21:10.643Z,64.07
2023-02-08T11:23:41.533Z,64.99
2023-02-08T11:26:18.836Z,64.63
2023-02-08T11:29:01.197Z,64.18
2023-02-08T11:31:30.853Z,63.38
2023-02-08T11:34:05.476Z,63.30
2023-02-08T11:36:35.542Z,64.07
2023-02-08T11:39:04.803Z,63.08
2023-02-08T11:41:33.557Z,61.69
2023-02-08T11:44:05.456Z,62.39
2023-02-08T11:46:36.762Z,61.89
2023-02-08T11:49:05.939Z,61.37
2023-02-08T11:51:35.749Z,61.53
2023-02-08T11:54:04.652Z,60.44
2023-02-08T11:56:34.141Z,62.27
2023-02-08T11:59:06.643Z,61.22
2023-02-08T12:01:36.174Z,60.86
2023-02-08T12:04:08.674Z,60.23
2023-02-08T12:07:05.298Z,59.75
2023-02-08T12:10:06.233Z,59.83
2023-02-08T12:12:49.206Z,59.78
2023-02-08T12:15:27.657Z,58.86
2023-02-08T12:18:13.121Z,59.26
2023-02-08T12:20:44.038Z,59.54
2023-02-08T12:23:46.408Z,59.23
2023-02-08T12:26:21.112Z,59.27
2023-02-08T12:29:07.648Z,59.56
2023-02-08T12:31:53.676Z,59.90
2023-02-08T12:34:28.494Z,59.62
2023-02-08T12:37:31.320Z,59.47
2023-02-08T12:40:30.719Z,60.00
2023-02-08T12:43:07.164Z,59.38
2023-02-08T12:45:54.878Z,59.56
2023-02-08T12:48:36.857Z,59.83
2023-02-08T12:51:13.466Z,59.36
2023-02-08T12:53:46.509Z,59.50
2023-02-08T12:56:26.956Z,59.23
2023-02-08T12:59:08.282Z,58.80
2023-02-08T13:01:45.314Z,60.36
2023-02-08T13:04:15.841Z,59.64
2023-02-08T13:06:45.838Z,58.87
2023-02-08T13:09:23.269Z,59.52
2023-02-08T13:11:55.186Z,58.85
2023-02-08T13:14:30.567Z,58.90
2023-02-08T13:17:04.041Z,59.00
2023-02-08T13:19:38.734Z,58.90
2023-02-08T13:22:08.802Z,58.73
2023-02-08T13:24:40.194Z,58.85
2023-02-08T13:27:08.667Z,58.37
2023-02-08T13:29:38.675Z,58.45
2023-02-08T13:32:09.900Z,58.33
2023-02-08T13:34:41.729Z,58.64
2023-02-08T13:37:25.317Z,58.16
2023-02-08T13:40:03.080Z,59.01
2023-02-08T13:42:35.893Z,57.84
2023-02-08T13:45:05.879Z,57.59
2023-02-08T13:47:39.098Z,58.11
2023-02-08T13:50:44.429Z,56.88
2023-02-08T13:53:14.000Z,56.95
2023-02-08T13:56:10.428Z,57.59
2023-02-08T13:59:05.356Z,57.26
2023-02-08T14:01:35.674Z,57.28
2023-02-08T14:04:34.891Z,56.19
2023-02-08T14:07:08.941Z,57.27
2023-02-08T14:09:54.288Z,56.64
2023-02-08T14:12:28.119Z,57.86
2023-02-08T14:15:29.980Z,54.90
2023-02-08T14:18:00.550Z,55.74
2023-02-08T14:20:32.754Z,55.32
2023-02-08T14:23:03.450Z,54.65
2023-02-08T14:25:41.730Z,55.00
2023-02-08T14:28:26.215Z,54.26
2023-02-08T14:30:56.925Z,54.38
2023-02-08T14:33:27.954Z,54.01
2023-02-08T14:35:59.057Z,54.73
2023-02-08T14:38:52.297Z,55.06
2023-02-08T14:41:49.451Z,55.58
2023-02-08T14:44:53.871Z,55.30
2023-02-08T14:48:05.319Z,55.59
2023-02-08T14:50:52.568Z,55.37
2023-02-08T14:53:31.979Z,55.64
2023-02-08T14:56:04.250Z,55.38
2023-02-08T14:58:35.538Z,55.88
2023-02-08T15:01:08.200Z,55.49
2023-02-08T15:03:36.656Z,55.51
2023-02-08T15:06:52.296Z,53.85
2023-02-08T15:09:24.792Z,54.18
2023-02-08T15:12:00.965Z,55.14
2023-02-08T15:14:30.112Z,54.83
2023-02-08T15:16:58.824Z,55.82
2023-02-08T15:19:29.458Z,56.48
2023-02-08T15:22:18.334Z,57.18
2023-02-08T15:24:54.049Z,57.48
2023-02-08T15:27:23.879Z,58.13
2023-02-08T15:29:52.181Z,58.59
2023-02-08T15:32:22.846Z,59.14
2023-02-08T15:34:54.597Z,58.90
2023-02-08T15:37:24.307Z,59.03
2023-02-08T15:39:54.462Z,59.14
2023-02-08T15:42:24.425Z,59.25
2023-02-08T15:44:54.069Z,59.75
2023-02-08T15:47:28.754Z,59.87
2023-02-08T15:49:57.807Z,60.59
2023-02-08T15:52:32.863Z,60.22
2023-02-08T15:55:00.638Z,60.67
2023-02-08T15:57:35.773Z,60.79
2023-02-08T16:00:08.146Z,61.03
2023-02-08T16:02:36.356Z,61.32
2023-02-08T16:05:13.452Z,61.32
2023-02-08T16:07:46.223Z,61.53
2023-02-08T16:10:25.010Z,61.93
2023-02-08T16:12:56.413Z,62.20
2023-02-08T16:15:42.847Z,62.30
2023-02-08T16:18:33.606Z,62.76
2023-02-08T16:21:03.469Z,63.01
2023-02-08T16:23:34.488Z,63.03
2023-02-08T16:26:16.547Z,63.34
2023-02-08T16:28:44.373Z,63.68
2023-02-08T16:31:12.364Z,63.36
2023-02-08T16:33:40.292Z,63.77
2023-02-08T16:36:08.171Z,63.95
2023-02-08T16:38:37.329Z,64.74
2023-02-08T16:41:13.810Z,64.66
2023-02-08T16:43:43.986Z,64.55
2023-02-08T16:46:26.813Z,65.04
2023-02-08T16:48:56.850Z,65.14
2023-02-08T16:51:26.435Z,65.23
2023-02-08T16:54:02.407Z,65.13
2023-02-08T16:56:30.412Z,65.19
2023-02-08T16:58:58.154Z,65.35
2023-02-08T17:01:28.457Z,65.92
2023-02-08T17:03:56.370Z,66.08
2023-02-08T17:06:30.369Z,66.09
2023-02-08T17:09:00.521Z,66.04
2023-02-08T17:11:29.044Z,66.63
2023-02-08T17:13:58.316Z,66.84
2023-02-08T17:16:29.098Z,67.20
2023-02-08T17:18:57.736Z,66.95
2023-02-08T17:21:26.049Z,67.01
2023-02-08T17:23:53.939Z,67.54
2023-02-08T17:26:27.331Z,67.91
2023-02-08T17:28:55.620Z,68.10
2023-02-08T17:31:24.456Z,68.13
2023-02-08T17:33:52.371Z,68.31
2023-02-08T17:36:20.210Z,68.22
2023-02-08T17:38:48.681Z,68.63
2023-02-08T17:41:19.235Z,68.81
2023-02-08T17:43:51.696Z,69.38
2023-02-08T17:46:22.564Z,69.35
2023-02-08T17:48:50.739Z,70.17
2023-02-08T17:51:20.738Z,70.42
2023-02-08T17:53:48.793Z,70.49
2023-02-08T17:56:21.438Z,70.33
2023-02-08T17:58:53.841Z,70.54
2023-02-08T18:01:24.452Z,70.84
2023-02-08T18:03:52.813Z,71.51
2023-02-08T18:06:23.101Z,71.27
2023-02-08T18:08:50.923Z,71.71
2023-02-08T18:11:20.316Z,72.41
2023-02-08T18:13:50.739Z,72.65
2023-02-08T18:16:21.097Z,72.60
2023-02-08T18:18:49.087Z,73.09
2023-02-08T18:21:19.042Z,72.82
2023-02-08T18:23:48.821Z,73.34
2023-02-08T18:26:18.706Z,74.30
2023-02-08T18:28:46.726Z,74.03
2023-02-08T18:31:20.107Z,73.96
2023-02-08T18:33:49.269Z,74.41
2023-02-08T18:36:17.817Z,73.71
2023-02-08T18:38:47.667Z,74.17
2023-02-08T18:41:18.329Z,74.63
2023-02-08T18:43:46.516Z,74.25
2023-02-08T18:46:19.029Z,74.65
2023-02-08T18:48:47.874Z,74.18
2023-02-08T18:51:19.562Z,74.50
2023-02-08T18:53:50.499Z,75.14
2023-02-08T18:56:24.030Z,75.78
2023-02-08T18:58:52.816Z,75.62
2023-02-08T19:01:23.746Z,74.92
2023-02-08T19:03:52.834Z,75.36
2023-02-08T19:06:24.335Z,75.31
2023-02-08T19:08:53.559Z,75.39
2023-02-08T19:11:23.965Z,75.48
2023-02-08T19:13:52.293Z,75.43
2023-02-08T19:16:24.504Z,75.42
2023-02-08T19:18:53.982Z,75.58
2023-02-08T19:21:21.790Z,75.31
2023-02-08T19:23:51.836Z,75.35
2023-02-08T19:26:21.914Z,74.67
2023-02-08T19:28:50.142Z,74.52
2023-02-08T19:31:21.128Z,74.76
2023-02-08T19:33:53.528Z,74.97
2023-02-08T19:36:23.641Z,75.06
2023-02-08T19:38:52.738Z,74.83
2023-02-08T19:41:22.899Z,74.81
2023-02-08T19:43:51.226Z,74.76
2023-02-08T19:46:23.202Z,74.85
2023-02-08T19:48:53.346Z,75.23
2023-02-08T19:51:21.107Z,74.21
2023-02-08T19:53:49.301Z,74.08
2023-02-08T19:56:18.941Z,73.88
2023-02-08T19:58:47.711Z,73.93
2023-02-08T20:01:18.056Z,73.83
2023-02-08T20:03:46.559Z,73.54
2023-02-08T20:06:17.915Z,73.53
2023-02-08T20:08:46.327Z,73.86
2023-02-08T20:11:19.454Z,73.42
2023-02-08T20:13:47.848Z,73.49
2023-02-08T20:16:15.917Z,73.97
2023-02-08T20:18:43.778Z,73.95
2023-02-08T20:21:12.699Z,73.55
2023-02-08T20:23:42.081Z,73.64
2023-02-08T20:26:12.200Z,73.51
2023-02-08T20:28:42.039Z,73.80
2023-02-08T20:31:10.829Z,74.19
2023-02-08T20:33:38.650Z,73.15
2023-02-08T20:36:09.470Z,73.74
2023-02-08T20:38:38.266Z,73.35
2023-02-08T20:41:10.132Z,73.29
2023-02-08T20:43:38.086Z,73.16
2023-02-08T20:46:07.286Z,73.43
2023-02-08T20:48:35.104Z,73.17
2023-02-08T20:51:07.454Z,72.20
2023-02-08T20:53:35.524Z,72.24
2023-02-08T20:56:07.607Z,72.36
2023-02-08T20:58:35.680Z,72.38
2023-02-08T21:01:07.636Z,71.42
2023-02-08T21:03:36.029Z,72.19
2023-02-08T21:06:12.410Z,71.90
2023-02-08T21:08:40.508Z,71.46
2023-02-08T21:11:10.035Z,71.61
2023-02-08T21:13:38.151Z,71.39
2023-02-08T21:16:07.068Z,71.43
2023-02-08T21:18:35.007Z,71.36
2023-02-08T21:21:02.785Z,71.79
2023-02-08T21:23:30.563Z,71.47
2023-02-08T21:26:00.200Z,71.31
2023-02-08T21:28:29.754Z,71.75
2023-02-08T21:30:58.649Z,70.95
2023-02-08T21:33:26.762Z,71.02
2023-02-08T21:35:54.767Z,70.99
2023-02-08T21:38:22.852Z,70.84
2023-02-08T21:40:50.586Z,70.47
2023-02-08T21:43:18.321Z,70.61
2023-02-08T21:45:47.569Z,70.75
2023-02-08T21:48:15.377Z,70.52
2023-02-08T21:51:00.483Z,71.15
2023-02-08T21:53:47.972Z,70.82
2023-02-08T21:56:15.753Z,71.26
2023-02-08T21:58:45.191Z,71.15
2023-02-08T22:01:14.344Z,70.46
2023-02-08T22:03:42.103Z,70.88
2023-02-08T22:06:09.895Z,70.81
2023-02-08T22:08:37.896Z,71.00
2023-02-08T22:11:07.642Z,70.56
2023-02-08T22:13:36.669Z,69.89
2023-02-08T22:16:08.683Z,69.92
2023-02-08T22:18:41.240Z,69.87
2023-02-08T22:21:09.632Z,70.01
2023-02-08T22:23:37.420Z,70.55
2023-02-08T22:26:08.487Z,69.96
2023-02-08T22:28:36.714Z,68.98
2023-02-08T22:31:05.117Z,69.48
2023-02-08T22:33:32.923Z,69.98
2023-02-08T22:36:06.867Z,69.99
2023-02-08T22:38:34.671Z,69.90
2023-02-08T22:41:02.580Z,68.94
2023-02-08T22:43:30.576Z,69.86
2023-02-08T22:45:58.627Z,70.42
2023-02-08T22:48:26.576Z,70.40
2023-02-08T22:50:54.453Z,70.69
2023-02-08T22:53:23.792Z,71.88
2023-02-08T22:55:52.418Z,72.29
2023-02-08T22:58:20.264Z,72.58
2023-02-08T23:00:49.168Z,73.11
2023-02-08T23:03:17.914Z,73.40
2023-02-08T23:05:48.393Z,73.34
2023-02-08T23:08:17.588Z,73.39
2023-02-08T23:10:47.144Z,73.81
2023-02-08T23:13:15.156Z,73.97
2023-02-08T23:15:44.464Z,73.74
2023-02-08T23:18:13.164Z,73.76
2023-02-08T23:20:41.713Z,74.11
2023-02-08T23:23:09.989Z,74.89
2023-02-08T23:25:40.815Z,74.42
2023-02-08T23:28:12.438Z,74.83
2023-02-08T23:30:41.359Z,74.25
2023-02-08T23:33:09.574Z,74.80
2023-02-08T23:35:40.485Z,75.12
2023-02-08T23:38:08.455Z,75.17
2023-02-08T23:40:36.430Z,75.55
2023-02-08T23:43:04.269Z,75.73
2023-02-08T23:45:33.446Z,75.75
2023-02-08T23:48:01.186Z,75.77
2023-02-08T23:50:28.896Z,75.95
2023-02-08T23:52:58.018Z,77.00
2023-02-08T23:55:26.195Z,77.41
2023-02-08T23:57:53.945Z,77.82
